Impacts TAF Board INFO
FOR SITUATIONAL AWARENESS. NOT TO BE USED FOR FLIGHT PLANNING PURPOSES.
IDs:

KPHX - Phoenix/Sky Harbor, AZ, US

Issued at 0910 UTC 20 Jan 2018
Updated at 0918 UTC 20 Jan 2018
Potential Impact None Slight Moderate High
Time<<20/22Z 20/23Z 21/00Z 21/01Z 21/02Z 21/03Z 21/04Z 21/05Z 21/06Z 21/07Z 21/08Z 21/09Z 21/10Z>>
Type PRVL PRVL PRVL PRVL PRVL PRVL PRVL PRVL PRVL PRVL PRVL PRVL PRVL
VIS >6 >6 >6 >6 >6 >6 >6 >6 >6 >6 >6 >6 >6
CIG 80 100 100 90 90 90 90 90 90 90 90 90 90
Cover OVC BKN BKN OVC OVC OVC OVC OVC OVC OVC OVC OVC OVC
FltCat VFR VFR VFR VFR VFR VFR VFR VFR VFR VFR VFR VFR VFR
WX VCSH VCSH VCSH VCSH VCSH VCSH VCSH VCSH VCSH VCSH VCSH VCSH VCSH
WDir 240 280 280 250 250 250 250 250 250 250 250 250 250
WSpd 10 14 14 7 7 7 7 7 7 7 7 7 7
WGst 17 24 24 -- -- -- -- -- -- -- -- -- --

Raw TAF
KPHX 200910Z 2009/2112 11005KT P6SM SCT250
  TEMPO 2013/2015 18010KT
  FM201500 24010G17KT P6SM VCSH FEW040 BKN080 OVC120
  TEMPO 2016/2020 -SHRA BKN060
  FM202300 28014G24KT P6SM VCSH FEW050 BKN100
  FM210100 25007KT P6SM VCSH SCT050 OVC090


METAR Board
Radar Display
Forecast Discussion

FOR SITUATIONAL AWARENESS. NOT TO BE USED FOR FLIGHT PLANNING PURPOSES.